createdAt,value
2022-10-01T00:06:05.253Z,7.97
2022-10-01T00:09:41.699Z,10.27
2022-10-01T00:14:43.450Z,10.73
2022-10-01T00:19:45.011Z,9.10
2022-10-01T00:24:47.304Z,6.65
2022-10-01T00:29:49.246Z,6.28
2022-10-01T00:34:50.719Z,4.95
2022-10-01T00:39:52.328Z,6.10
2022-10-01T00:44:54.136Z,5.00
2022-10-01T00:50:07.253Z,7.25
2022-10-01T00:55:18.890Z,5.28
2022-10-01T01:00:21.465Z,5.60
2022-10-01T01:05:23.731Z,5.60
2022-10-01T01:10:33.041Z,7.30
2022-10-01T01:15:46.486Z,5.55
2022-10-01T01:21:00.435Z,6.60
2022-10-01T01:26:14.006Z,6.63
2022-10-01T01:31:23.096Z,4.18
2022-10-01T01:36:30.429Z,10.98
2022-10-01T01:41:35.837Z,3.47
2022-10-01T01:46:41.860Z,4.20
2022-10-01T01:51:52.287Z,3.40
2022-10-01T01:56:56.475Z,3.63
2022-10-01T02:01:59.057Z,4.72
2022-10-01T02:07:16.144Z,2.88
2022-10-01T02:12:17.712Z,3.78
2022-10-01T02:17:25.192Z,2.33
2022-10-01T02:22:47.238Z,3.03
2022-10-01T02:27:59.180Z,3.92
2022-10-01T02:33:02.246Z,2.58
2022-10-01T02:38:07.033Z,3.17
2022-10-01T02:43:21.132Z,3.13
2022-10-01T02:48:22.636Z,1.95
2022-10-01T02:53:43.641Z,2.55
2022-10-01T02:58:45.161Z,1.92
2022-10-01T03:03:46.570Z,2.05
2022-10-01T03:08:48.012Z,2.85
2022-10-01T03:13:49.840Z,3.78
2022-10-01T03:18:51.303Z,1.98
2022-10-01T03:23:52.787Z,1.48
2022-10-01T03:28:54.278Z,3.85
2022-10-01T03:33:57.994Z,1.40
2022-10-01T03:38:59.479Z,1.35
2022-10-01T03:44:01.204Z,1.60
2022-10-01T03:49:03.394Z,1.58
2022-10-01T03:54:07.151Z,1.15
2022-10-01T03:59:12.105Z,1.95
2022-10-01T04:04:13.613Z,1.38
2022-10-01T04:09:15.079Z,3.08
2022-10-01T04:14:16.588Z,1.67
2022-10-01T04:19:19.251Z,3.13
2022-10-01T04:24:20.686Z,0.90
2022-10-01T04:29:22.248Z,1.85
2022-10-01T04:34:43.729Z,1.65
2022-10-01T04:39:45.322Z,3.80
2022-10-01T04:44:47.346Z,2.60
2022-10-01T04:49:49.123Z,4.03
2022-10-01T04:54:52.349Z,3.13
2022-10-01T04:59:53.836Z,2.35
2022-10-01T05:04:56.217Z,1.90
2022-10-01T05:09:58.692Z,1.95
2022-10-01T05:15:00.206Z,3.40
2022-10-01T05:20:03.745Z,0.85
2022-10-01T05:25:07.309Z,4.65
2022-10-01T05:30:10.672Z,2.40
2022-10-01T05:35:12.140Z,2.83
2022-10-01T05:40:13.866Z,2.42
2022-10-01T05:45:15.452Z,3.38
2022-10-01T05:50:16.955Z,2.50
2022-10-01T05:55:19.215Z,2.67
2022-10-01T06:00:21.630Z,1.83
2022-10-01T06:05:23.866Z,3.10
2022-10-01T06:10:25.849Z,2.28
2022-10-01T06:15:27.905Z,3.15
2022-10-01T06:20:29.695Z,1.20
2022-10-01T06:25:31.329Z,2.53
2022-10-01T06:30:35.635Z,1.75
2022-10-01T06:35:42.652Z,1.30
2022-10-01T06:40:44.274Z,1.92
2022-10-01T06:45:45.815Z,1.58
2022-10-01T06:50:49.624Z,1.60
2022-10-01T06:55:51.276Z,2.28
2022-10-01T07:00:59.085Z,1.58
2022-10-01T07:06:02.970Z,3.63
2022-10-01T07:11:05.131Z,2.15
2022-10-01T07:16:06.679Z,1.65
2022-10-01T07:21:08.365Z,2.08
2022-10-01T07:26:10.265Z,2.20
2022-10-01T07:31:11.830Z,2.97
2022-10-01T07:36:13.788Z,3.25
2022-10-01T07:41:17.326Z,1.92
2022-10-01T07:46:19.035Z,2.58
2022-10-01T07:51:21.034Z,8.38
2022-10-01T07:56:22.836Z,1.00
2022-10-01T08:01:25.135Z,1.27
2022-10-01T08:06:26.859Z,1.95
2022-10-01T08:11:28.296Z,1.83
2022-10-01T08:16:33.398Z,1.30
2022-10-01T08:21:36.467Z,4.35
2022-10-01T08:26:38.374Z,2.65
2022-10-01T08:31:41.092Z,2.13
2022-10-01T08:36:42.865Z,2.65
2022-10-01T08:41:56.367Z,2.22
2022-10-01T08:47:04.898Z,2.85
2022-10-01T08:52:25.668Z,1.80
2022-10-01T08:57:34.804Z,6.30
2022-10-01T09:02:40.340Z,1.00
2022-10-01T09:07:47.722Z,1.35
2022-10-01T09:13:11.311Z,3.53
2022-10-01T09:18:47.116Z,3.15
2022-10-01T09:24:02.150Z,2.53
2022-10-01T09:29:09.553Z,2.33
2022-10-01T09:34:29.984Z,1.67
2022-10-01T09:39:54.964Z,1.45
2022-10-01T09:45:00.165Z,2.55
2022-10-01T09:50:06.624Z,3.30
2022-10-01T09:55:20.344Z,2.33
2022-10-01T10:00:25.081Z,1.25
2022-10-01T10:05:38.938Z,1.52
2022-10-01T10:10:49.218Z,1.60
2022-10-01T10:15:53.699Z,1.02
2022-10-01T10:20:56.959Z,0.95
2022-10-01T10:26:01.076Z,1.23
2022-10-01T10:31:02.720Z,2.85
2022-10-01T10:36:06.292Z,2.22
2022-10-01T10:41:16.826Z,1.30
2022-10-01T10:46:35.439Z,1.08
2022-10-01T10:51:45.337Z,2.08
2022-10-01T10:56:55.327Z,0.67
2022-10-01T11:01:56.902Z,0.80
2022-10-01T11:07:01.639Z,1.77
2022-10-01T11:12:19.183Z,2.15
2022-10-01T11:17:31.234Z,0.70
2022-10-01T11:23:05.881Z,2.17
2022-10-01T11:28:22.101Z,0.30
2022-10-01T11:33:50.504Z,0.68
2022-10-01T11:39:05.666Z,0.40
2022-10-01T11:44:15.540Z,0.40
2022-10-01T11:49:55.667Z,0.67
2022-10-01T11:55:37.561Z,0.43
2022-10-01T12:00:41.338Z,2.38
2022-10-01T12:05:43.213Z,0.57
2022-10-01T12:10:52.980Z,0.40
2022-10-01T12:16:10.142Z,0.30
2022-10-01T12:21:23.682Z,0.75
2022-10-01T12:27:20.077Z,0.40
2022-10-01T12:32:41.717Z,0.30
2022-10-01T12:38:15.607Z,0.20
2022-10-01T12:43:50.821Z,0.65
2022-10-01T12:49:04.209Z,0.50
2022-10-01T12:54:32.257Z,0.85
2022-10-01T13:00:04.852Z,1.88
2022-10-01T13:05:24.511Z,0.60
2022-10-01T13:10:48.935Z,0.40
2022-10-01T13:16:04.039Z,0.30
2022-10-01T13:21:17.767Z,0.93
2022-10-01T13:26:23.306Z,1.40
2022-10-01T13:31:37.303Z,0.60
2022-10-01T13:36:40.012Z,0.25
2022-10-01T13:41:42.288Z,0.77
2022-10-01T13:47:03.096Z,1.70
2022-10-01T13:52:06.091Z,0.70
2022-10-01T13:57:43.566Z,1.20
2022-10-01T14:03:00.330Z,1.45
2022-10-01T14:08:21.436Z,1.15
2022-10-01T14:13:42.595Z,2.15
2022-10-01T14:18:48.416Z,0.20
2022-10-01T14:24:28.452Z,1.48
2022-10-01T14:29:41.850Z,3.17
2022-10-01T14:34:50.578Z,0.80
2022-10-01T14:40:14.240Z,0.40
2022-10-01T14:45:19.503Z,0.22
2022-10-01T14:50:21.546Z,3.78
2022-10-01T14:55:24.677Z,1.33
2022-10-01T15:00:29.324Z,1.92
2022-10-01T15:05:36.882Z,4.60
2022-10-01T15:10:42.085Z,2.20
2022-10-01T15:15:43.911Z,1.65
2022-10-01T15:20:53.372Z,4.10
2022-10-01T15:25:56.682Z,1.23
2022-10-01T15:31:06.795Z,1.33
2022-10-01T15:36:18.929Z,1.08
2022-10-01T15:41:32.877Z,0.75
2022-10-01T15:46:35.855Z,0.52
2022-10-01T15:52:07.303Z,1.02
2022-10-01T15:57:14.889Z,1.83
2022-10-01T16:02:23.028Z,0.68
2022-10-01T16:07:30.512Z,0.63
2022-10-01T16:12:32.083Z,1.27
2022-10-01T16:17:37.575Z,0.50
2022-10-01T16:22:39.897Z,4.45
2022-10-01T16:27:47.379Z,1.25
2022-10-01T16:32:49.550Z,1.02
2022-10-01T16:37:54.248Z,1.77
2022-10-01T16:42:56.128Z,4.15
2022-10-01T16:48:00.786Z,3.30
2022-10-01T16:53:04.309Z,2.28
2022-10-01T16:58:09.034Z,1.55
2022-10-01T17:03:19.938Z,0.60
2022-10-01T17:08:21.610Z,1.58
2022-10-01T17:13:28.742Z,6.22
2022-10-01T17:18:30.315Z,2.38
2022-10-01T17:23:32.093Z,1.92
2022-10-01T17:28:34.060Z,2.92
2022-10-01T17:33:36.608Z,2.85
2022-10-01T17:38:40.340Z,3.75
2022-10-01T17:43:42.096Z,1.58
2022-10-01T17:48:43.808Z,1.88
2022-10-01T17:53:45.524Z,4.40
2022-10-01T17:58:47.232Z,1.48
2022-10-01T18:03:55.813Z,2.53
2022-10-01T18:08:57.463Z,3.50
2022-10-01T18:13:59.503Z,2.97
2022-10-01T18:24:24.424Z,3.22
2022-10-01T18:29:29.705Z,2.53
2022-10-01T18:34:42.147Z,2.47
2022-10-01T18:39:47.521Z,2.13
2022-10-01T18:44:58.202Z,4.95
2022-10-01T18:55:36.888Z,1.75
2022-10-01T19:00:47.248Z,4.18
2022-10-01T19:06:16.356Z,6.88
2022-10-01T19:11:29.005Z,1.38
2022-10-01T19:16:36.083Z,1.75
2022-10-01T19:21:55.798Z,3.13
2022-10-01T19:27:21.649Z,3.53
2022-10-01T19:32:27.364Z,2.42
2022-10-01T19:37:36.876Z,3.13
2022-10-01T19:42:43.124Z,4.07
2022-10-01T19:47:52.122Z,3.80
2022-10-01T19:52:57.284Z,1.20
2022-10-01T19:57:59.527Z,2.70
2022-10-01T20:03:11.317Z,3.35
2022-10-01T20:08:16.183Z,3.42
2022-10-01T20:13:22.557Z,2.05
2022-10-01T20:18:47.846Z,3.10
2022-10-01T20:23:58.076Z,1.85
2022-10-01T20:28:59.503Z,2.85
2022-10-01T20:34:06.933Z,4.43
2022-10-01T20:39:25.387Z,2.90
2022-10-01T20:44:33.900Z,1.63
2022-10-01T20:49:56.126Z,4.65
2022-10-01T20:55:06.912Z,5.72
2022-10-01T21:00:21.600Z,3.30
2022-10-01T21:05:46.482Z,3.17
2022-10-01T21:10:55.802Z,3.08
2022-10-01T21:16:06.186Z,2.80
2022-10-01T21:21:16.920Z,4.53
2022-10-01T21:31:45.019Z,1.77
2022-10-01T21:36:55.577Z,6.25
2022-10-01T21:42:06.126Z,6.18
2022-10-01T21:47:45.410Z,3.42
2022-10-01T21:53:31.881Z,4.10
2022-10-01T21:58:52.285Z,6.28
2022-10-01T22:04:29.093Z,6.47
2022-10-01T22:09:39.798Z,3.38
2022-10-01T22:14:43.839Z,6.15
2022-10-01T22:19:51.334Z,3.78
2022-10-01T22:24:54.465Z,4.68
2022-10-01T22:30:01.911Z,3.95
2022-10-01T22:35:09.596Z,8.15
2022-10-01T22:40:21.122Z,4.18
2022-10-01T22:45:29.797Z,4.00
2022-10-01T22:50:50.315Z,5.43
2022-10-01T22:55:57.088Z,4.68
2022-10-01T23:01:15.321Z,7.40
2022-10-01T23:06:34.685Z,8.57
2022-10-01T23:11:58.688Z,6.05
2022-10-01T23:17:09.203Z,4.15
2022-10-01T23:22:16.760Z,2.50
2022-10-01T23:27:27.230Z,2.83
2022-10-01T23:32:41.856Z,11.32
2022-10-01T23:37:57.468Z,7.75
2022-10-01T23:43:05.205Z,5.55
2022-10-01T23:48:15.610Z,6.03
2022-10-01T23:53:24.185Z,5.13
2022-10-01T23:58:30.150Z,5.97
